createdAt,value
2019-01-27T00:02:37.087Z,4.00
2019-01-27T00:06:21.680Z,2.80
2019-01-27T00:18:08.584Z,2.33
2019-01-27T00:25:50.006Z,2.83
2019-01-27T00:29:15.683Z,3.20
2019-01-27T00:32:43.861Z,3.13
2019-01-27T00:36:09.477Z,5.90
2019-01-27T00:39:35.113Z,9.93
2019-01-27T00:43:00.760Z,4.10
2019-01-27T00:46:26.358Z,5.63
2019-01-27T00:49:51.908Z,7.00
2019-01-27T00:53:17.559Z,4.50
2019-01-27T00:56:43.222Z,5.90
2019-01-27T01:00:12.157Z,4.57
2019-01-27T01:03:37.846Z,3.53
2019-01-27T01:07:03.491Z,4.70
2019-01-27T01:10:29.136Z,3.50
2019-01-27T01:13:54.976Z,4.00
2019-01-27T01:17:20.615Z,3.77
2019-01-27T01:20:46.312Z,3.60
2019-01-27T01:24:31.375Z,3.50
2019-01-27T01:27:56.977Z,5.30
2019-01-27T01:31:22.660Z,7.93
2019-01-27T01:34:48.681Z,3.90
2019-01-27T01:38:14.257Z,4.17
2019-01-27T01:41:39.862Z,3.67
2019-01-27T01:45:08.912Z,5.90
2019-01-27T01:48:34.608Z,4.33
2019-01-27T01:52:00.189Z,4.40
2019-01-27T01:55:26.243Z,5.17
2019-01-27T01:58:51.930Z,4.10
2019-01-27T02:02:17.542Z,3.90
2019-01-27T02:05:43.175Z,4.17
2019-01-27T02:09:11.489Z,4.47
2019-01-27T02:12:37.198Z,3.73
2019-01-27T02:16:09.022Z,6.60
2019-01-27T02:19:34.606Z,3.83
2019-01-27T02:23:07.358Z,4.10
2019-01-27T02:26:35.305Z,4.87
2019-01-27T02:30:00.893Z,3.93
2019-01-27T02:33:26.508Z,4.33
2019-01-27T02:36:52.114Z,4.03
2019-01-27T02:40:18.067Z,4.07
2019-01-27T02:43:43.700Z,4.37
2019-01-27T02:47:09.327Z,4.30
2019-01-27T02:50:34.959Z,4.00
2019-01-27T02:54:03.635Z,4.53
2019-01-27T02:57:29.220Z,4.20
2019-01-27T03:00:54.870Z,3.23
2019-01-27T03:04:20.453Z,3.33
2019-01-27T03:07:46.077Z,3.97
2019-01-27T03:11:11.642Z,3.17
2019-01-27T03:14:37.565Z,3.97
2019-01-27T03:18:03.386Z,3.80
2019-01-27T03:21:28.976Z,2.70
2019-01-27T03:24:54.593Z,2.57
2019-01-27T03:28:20.181Z,2.53
2019-01-27T03:31:45.763Z,1.80
2019-01-27T03:35:11.647Z,2.13
2019-01-27T03:38:37.237Z,2.00
2019-01-27T03:42:02.869Z,3.13
2019-01-27T03:45:28.482Z,2.87
2019-01-27T03:48:54.071Z,2.53
2019-01-27T03:52:19.635Z,1.93
2019-01-27T03:55:45.198Z,2.17
2019-01-27T03:59:10.909Z,2.93
2019-01-27T04:02:36.523Z,2.10
2019-01-27T04:06:02.082Z,2.67
2019-01-27T04:09:27.662Z,3.57
2019-01-27T04:12:53.266Z,1.90
2019-01-27T04:16:18.862Z,1.40
2019-01-27T04:19:44.568Z,2.00
2019-01-27T04:23:10.158Z,1.80
2019-01-27T04:26:37.799Z,2.00
2019-01-27T04:30:03.785Z,3.13
2019-01-27T04:33:29.373Z,1.30
2019-01-27T04:37:13.075Z,1.40
2019-01-27T04:40:39.251Z,1.90
2019-01-27T04:48:01.149Z,4.50
2019-01-27T04:51:26.706Z,3.93
2019-01-27T04:54:52.312Z,3.90
2019-01-27T04:58:17.942Z,2.23
2019-01-27T05:01:43.595Z,1.87
2019-01-27T05:05:10.371Z,2.87
2019-01-27T05:08:35.951Z,3.03
2019-01-27T05:12:01.592Z,2.30
2019-01-27T05:15:27.938Z,2.00
2019-01-27T05:18:53.535Z,2.50
2019-01-27T05:22:19.121Z,1.30
2019-01-27T05:25:44.679Z,1.93
2019-01-27T05:29:10.287Z,4.63
2019-01-27T05:32:35.870Z,2.73
2019-01-27T05:36:01.459Z,1.70
2019-01-27T05:39:27.062Z,1.90
2019-01-27T05:42:52.680Z,1.70
2019-01-27T05:46:18.653Z,2.77
2019-01-27T05:49:44.347Z,1.30
2019-01-27T05:53:09.951Z,1.80
2019-01-27T05:56:35.515Z,1.60
2019-01-27T06:00:01.245Z,6.97
2019-01-27T06:03:26.841Z,1.30
2019-01-27T06:06:52.619Z,0.90
2019-01-27T06:10:18.210Z,1.07
2019-01-27T06:13:43.850Z,4.07
2019-01-27T06:17:09.425Z,3.03
2019-01-27T06:20:35.375Z,1.20
2019-01-27T06:28:04.419Z,1.70
2019-01-27T06:31:49.059Z,1.60
2019-01-27T06:35:33.918Z,1.70
2019-01-27T06:43:02.041Z,2.37
2019-01-27T06:46:46.649Z,5.83
2019-01-27T06:54:21.110Z,1.33
2019-01-27T06:58:06.282Z,2.27
2019-01-27T07:06:32.428Z,8.27
2019-01-27T07:10:36.119Z,5.57
2019-01-27T07:18:51.682Z,4.67
2019-01-27T07:22:44.699Z,5.00
2019-01-27T07:26:48.226Z,5.47
2019-01-27T07:35:10.608Z,2.47
2019-01-27T07:39:14.044Z,2.47
2019-01-27T07:43:12.745Z,2.30
2019-01-27T07:47:22.349Z,2.77
2019-01-27T07:51:45.344Z,1.90
2019-01-27T07:55:48.835Z,3.53
2019-01-27T07:59:55.268Z,3.53
2019-01-27T08:03:51.116Z,4.23
2019-01-27T08:07:54.881Z,3.73
2019-01-27T08:11:58.986Z,3.00
2019-01-27T08:16:02.740Z,3.43
2019-01-27T08:20:06.186Z,2.43
2019-01-27T08:24:09.636Z,4.60
2019-01-27T08:28:13.095Z,5.07
2019-01-27T08:32:08.137Z,3.20
2019-01-27T08:36:11.554Z,3.53
2019-01-27T08:40:12.498Z,2.80
2019-01-27T08:44:08.841Z,2.80
2019-01-27T08:51:56.918Z,3.57
2019-01-27T08:56:00.494Z,6.23
2019-01-27T08:59:45.144Z,2.23
2019-01-27T09:07:39.589Z,2.10
2019-01-27T09:11:43.041Z,3.90
2019-01-27T09:15:46.500Z,2.33
2019-01-27T09:19:50.265Z,5.63
2019-01-27T09:23:53.752Z,4.80
2019-01-27T09:27:55.059Z,4.90
2019-01-27T09:31:58.635Z,2.27
2019-01-27T09:36:02.249Z,2.17
2019-01-27T09:40:05.922Z,1.90
2019-01-27T09:44:02.144Z,4.40
2019-01-27T09:48:05.791Z,5.73
2019-01-27T09:52:09.264Z,3.03
2019-01-27T09:56:12.718Z,2.63
2019-01-27T10:00:02.831Z,6.47
2019-01-27T10:04:06.725Z,7.77
2019-01-27T10:08:10.276Z,1.57
2019-01-27T10:12:13.761Z,7.33
2019-01-27T10:16:17.264Z,2.43
2019-01-27T10:20:11.750Z,5.73
2019-01-27T10:24:15.438Z,8.73
2019-01-27T10:28:18.422Z,4.17
2019-01-27T10:36:18.479Z,4.33
2019-01-27T10:40:22.212Z,6.67
2019-01-27T10:44:21.010Z,4.80
2019-01-27T12:45:52.264Z,5.47
2019-01-27T12:49:36.959Z,5.03
2019-01-27T12:53:21.582Z,6.17
2019-01-27T12:57:06.604Z,6.17
2019-01-27T13:00:55.112Z,4.87
2019-01-27T13:04:39.719Z,5.87
2019-01-27T13:08:25.902Z,5.17
2019-01-27T13:12:10.746Z,5.53
2019-01-27T13:15:55.394Z,6.83
2019-01-27T13:19:40.308Z,6.10
2019-01-27T13:27:28.712Z,8.70
2019-01-27T13:31:32.162Z,8.20
2019-01-27T13:35:17.234Z,11.60
2019-01-27T13:39:02.165Z,5.43
2019-01-27T13:43:05.610Z,12.97
2019-01-27T13:46:31.246Z,7.03
2019-01-27T13:50:16.101Z,6.57
2019-01-27T13:54:00.726Z,9.67
2019-01-27T13:57:46.116Z,7.07
2019-01-27T14:01:30.786Z,8.70
2019-01-27T14:05:15.471Z,6.47
2019-01-27T14:09:00.138Z,7.33
2019-01-27T14:13:03.642Z,11.43
2019-01-27T14:16:48.389Z,9.47
2019-01-27T14:20:33.186Z,10.83
2019-01-27T14:24:17.890Z,10.07
2019-01-27T14:28:21.629Z,9.33
2019-01-27T14:32:06.258Z,11.00
2019-01-27T14:35:50.885Z,9.43
2019-01-27T14:39:35.536Z,10.17
2019-01-27T14:43:12.664Z,8.20
2019-01-27T14:46:57.353Z,7.37
2019-01-27T14:50:45.040Z,6.83
2019-01-27T14:54:29.702Z,6.00
2019-01-27T14:58:14.377Z,4.80
2019-01-27T15:01:59.073Z,5.77
2019-01-27T15:06:04.082Z,5.77
2019-01-27T15:09:29.719Z,6.97
2019-01-27T15:13:14.340Z,5.90
2019-01-27T15:16:59.026Z,6.07
2019-01-27T15:20:38.168Z,2.60
2019-01-27T15:24:22.885Z,4.83
2019-01-27T15:28:07.476Z,3.47
2019-01-27T15:31:33.352Z,4.17
2019-01-27T15:35:18.002Z,4.43
2019-01-27T15:39:03.035Z,5.17
2019-01-27T15:42:47.666Z,3.63
2019-01-27T15:46:32.322Z,7.10
2019-01-27T15:50:19.239Z,7.57
2019-01-27T15:54:04.071Z,9.77
2019-01-27T15:57:49.375Z,5.53
2019-01-27T16:01:34.065Z,11.97
2019-01-27T16:05:19.842Z,9.50
2019-01-27T16:09:06.064Z,10.00
2019-01-27T16:16:40.490Z,5.20
2019-01-27T16:20:17.659Z,20.43
2019-01-27T16:27:55.475Z,6.00
2019-01-27T16:31:47.813Z,9.67
2019-01-27T16:39:22.881Z,15.83
2019-01-27T16:42:59.761Z,14.87
2019-01-27T16:46:44.486Z,11.30
2019-01-27T16:50:29.249Z,13.63
2019-01-27T16:54:13.912Z,9.43
2019-01-27T16:57:58.570Z,12.17
2019-01-27T17:01:43.223Z,15.70
2019-01-27T17:05:27.937Z,11.33
2019-01-27T17:13:02.609Z,15.23
2019-01-27T17:20:43.758Z,8.10
2019-01-27T17:36:18.537Z,13.43
2019-01-27T17:40:03.272Z,9.47
2019-01-27T17:44:06.731Z,12.10
2019-01-27T17:48:10.166Z,19.23
2019-01-27T17:51:55.030Z,36.17
2019-01-27T17:55:43.356Z,14.80
2019-01-27T17:59:34.278Z,18.90
2019-01-27T18:03:37.732Z,15.40
2019-01-27T18:07:41.275Z,13.13
2019-01-27T18:11:30.447Z,17.90
2019-01-27T18:15:34.685Z,17.20
2019-01-27T18:19:20.352Z,11.83
2019-01-27T18:23:05.263Z,14.13
2019-01-27T18:26:49.283Z,8.43
2019-01-27T18:30:33.944Z,10.07
2019-01-27T18:34:18.582Z,9.93
2019-01-27T18:37:44.100Z,6.67
2019-01-27T18:41:09.707Z,9.67
2019-01-27T18:44:35.395Z,11.63
2019-01-27T18:48:20.024Z,8.37
2019-01-27T18:51:45.626Z,7.43
2019-01-27T18:55:30.436Z,9.67
2019-01-27T18:59:34.209Z,10.73
2019-01-27T19:03:46.415Z,11.13
2019-01-27T19:07:30.916Z,9.57
2019-01-27T19:11:15.396Z,5.60
2019-01-27T19:14:58.521Z,7.30
2019-01-27T19:18:41.812Z,8.33
2019-01-27T19:22:32.393Z,9.47
2019-01-27T19:26:05.373Z,14.43
2019-01-27T19:29:53.209Z,7.30
2019-01-27T19:33:37.818Z,10.37
2019-01-27T19:37:10.694Z,12.90
2019-01-27T19:40:55.491Z,8.33
2019-01-27T19:44:27.417Z,17.13
2019-01-27T19:48:14.689Z,12.03
2019-01-27T19:52:11.171Z,11.70
2019-01-27T19:56:02.191Z,13.13
2019-01-27T19:59:49.557Z,8.37
2019-01-27T20:03:31.049Z,17.20
2019-01-27T20:07:18.376Z,15.27
2019-01-27T20:11:01.194Z,9.80
2019-01-27T20:14:51.774Z,14.43
2019-01-27T20:18:25.523Z,10.20
2019-01-27T20:22:01.604Z,14.43
2019-01-27T20:25:50.943Z,14.60
2019-01-27T20:29:31.870Z,14.43
2019-01-27T20:33:14.964Z,11.70
2019-01-27T20:37:02.643Z,12.53
2019-01-27T20:40:47.101Z,14.63
2019-01-27T20:44:17.242Z,12.00
2019-01-27T20:47:58.831Z,16.57
2019-01-27T20:51:43.395Z,17.10
2019-01-27T20:55:28.641Z,19.93
2019-01-27T20:59:07.955Z,20.10
2019-01-27T21:02:51.364Z,11.07
2019-01-27T21:06:32.540Z,16.27
2019-01-27T21:10:20.070Z,15.80
2019-01-27T21:14:05.422Z,11.27
2019-01-27T21:17:49.863Z,16.10
2019-01-27T21:21:15.721Z,17.30
2019-01-27T21:24:41.527Z,20.27
2019-01-27T21:28:10.839Z,22.47
2019-01-27T21:31:36.548Z,23.90
2019-01-27T21:35:02.153Z,15.37
2019-01-27T21:38:27.772Z,18.37
2019-01-27T21:41:53.384Z,16.70
2019-01-27T21:45:19.219Z,17.47
2019-01-27T21:48:49.193Z,25.07
2019-01-27T21:52:12.354Z,20.47
2019-01-27T21:55:41.700Z,19.30
2019-01-27T21:59:07.328Z,15.87
2019-01-27T22:02:32.933Z,19.00
2019-01-27T22:05:58.525Z,21.40
2019-01-27T22:09:24.099Z,24.53
2019-01-27T22:12:49.718Z,19.63
2019-01-27T22:16:15.406Z,19.60
2019-01-27T22:19:41.019Z,15.63
2019-01-27T22:23:08.155Z,19.00
2019-01-27T22:26:33.877Z,15.23
2019-01-27T22:29:59.548Z,20.50
2019-01-27T22:33:25.207Z,18.47
2019-01-27T22:36:50.857Z,15.30
2019-01-27T22:40:17.458Z,16.20
2019-01-27T22:43:43.129Z,20.77
2019-01-27T22:47:08.776Z,19.03
2019-01-27T22:50:34.490Z,15.37
2019-01-27T22:54:00.213Z,13.93
2019-01-27T22:57:25.866Z,13.17
2019-01-27T23:01:10.092Z,14.37
2019-01-27T23:04:35.920Z,12.50
2019-01-27T23:08:01.518Z,13.97
2019-01-27T23:11:28.745Z,13.53
2019-01-27T23:14:54.500Z,13.87
2019-01-27T23:18:20.239Z,17.07
2019-01-27T23:21:45.947Z,14.27
2019-01-27T23:25:11.542Z,13.53
2019-01-27T23:28:37.310Z,13.97
2019-01-27T23:32:02.985Z,14.23
2019-01-27T23:35:31.465Z,12.37
2019-01-27T23:38:58.183Z,11.90
2019-01-27T23:42:23.806Z,16.37
2019-01-27T23:45:49.433Z,13.23
2019-01-27T23:49:15.117Z,10.07
2019-01-27T23:52:40.989Z,12.33
2019-01-27T23:56:06.605Z,14.13
2019-01-27T23:59:32.308Z,12.57
